createdAt,value
2018-06-24T00:02:11.704Z,5.20
2018-06-24T00:04:40.191Z,4.83
2018-06-24T00:07:09.023Z,5.10
2018-06-24T00:09:37.475Z,4.67
2018-06-24T00:12:05.985Z,4.93
2018-06-24T00:14:34.415Z,4.83
2018-06-24T00:17:03.149Z,4.93
2018-06-24T00:19:31.627Z,4.50
2018-06-24T00:22:00.072Z,4.93
2018-06-24T00:24:28.546Z,4.00
2018-06-24T00:26:57.050Z,4.60
2018-06-24T00:29:25.527Z,4.60
2018-06-24T00:31:54.189Z,5.00
2018-06-24T00:34:22.719Z,4.83
2018-06-24T00:36:51.148Z,5.60
2018-06-24T00:39:19.658Z,5.10
2018-06-24T00:41:48.113Z,5.83
2018-06-24T00:44:16.636Z,4.97
2018-06-24T00:46:45.122Z,5.90
2018-06-24T00:49:13.734Z,5.60
2018-06-24T00:51:42.138Z,5.47
2018-06-24T00:54:10.734Z,5.53
2018-06-24T00:56:39.234Z,6.10
2018-06-24T00:59:08.402Z,5.73
2018-06-24T01:01:37.049Z,5.40
2018-06-24T01:04:05.526Z,5.80
2018-06-24T01:06:33.989Z,4.80
2018-06-24T01:09:02.485Z,4.50
2018-06-24T01:11:30.968Z,4.90
2018-06-24T01:13:59.480Z,4.50
2018-06-24T01:16:28.051Z,4.33
2018-06-24T01:18:56.588Z,4.43
2018-06-24T01:21:25.071Z,4.77
2018-06-24T01:23:53.551Z,5.00
2018-06-24T01:26:22.015Z,4.20
2018-06-24T01:28:50.503Z,4.53
2018-06-24T01:31:19.098Z,4.40
2018-06-24T01:33:47.771Z,4.47
2018-06-24T01:36:16.289Z,4.10
2018-06-24T01:38:44.782Z,4.30
2018-06-24T01:41:13.238Z,4.57
2018-06-24T01:43:41.706Z,4.63
2018-06-24T01:46:10.182Z,4.67
2018-06-24T01:48:38.653Z,4.60
2018-06-24T01:51:07.134Z,4.77
2018-06-24T01:53:35.638Z,4.10
2018-06-24T02:02:43.144Z,4.47
2018-06-24T02:05:11.622Z,4.17
2018-06-24T02:07:44.966Z,4.50
2018-06-24T02:10:13.585Z,4.63
2018-06-24T02:12:42.058Z,4.47
2018-06-24T02:15:10.498Z,4.23
2018-06-24T02:17:38.966Z,5.30
2018-06-24T02:20:07.526Z,5.03
2018-06-24T02:22:36.071Z,4.97
2018-06-24T02:25:04.576Z,4.60
2018-06-24T02:27:33.010Z,4.43
2018-06-24T02:30:01.459Z,5.07
2018-06-24T02:32:29.996Z,5.03
2018-06-24T02:34:58.427Z,5.90
2018-06-24T02:37:26.953Z,5.33
2018-06-24T02:39:55.422Z,5.63
2018-06-24T02:42:23.944Z,5.20
2018-06-24T02:44:52.366Z,5.43
2018-06-24T02:47:20.834Z,4.63
2018-06-24T02:49:49.422Z,5.30
2018-06-24T02:52:18.272Z,5.63
2018-06-24T02:54:46.819Z,5.37
2018-06-24T02:57:15.306Z,4.63
2018-06-24T02:59:43.746Z,5.17
2018-06-24T03:02:12.272Z,5.20
2018-06-24T03:04:40.707Z,4.60
2018-06-24T03:07:09.300Z,5.20
2018-06-24T03:09:38.020Z,5.30
2018-06-24T03:12:06.522Z,4.60
2018-06-24T03:14:34.995Z,5.07
2018-06-24T03:17:03.426Z,4.47
2018-06-24T03:19:32.058Z,5.10
2018-06-24T03:22:00.490Z,5.33
2018-06-24T03:24:29.006Z,4.73
2018-06-24T03:26:57.455Z,5.00
2018-06-24T03:29:26.143Z,4.70
2018-06-24T03:31:54.808Z,4.97
2018-06-24T03:34:23.321Z,5.20
2018-06-24T03:36:51.807Z,4.43
2018-06-24T03:39:20.469Z,4.60
2018-06-24T03:41:48.962Z,5.47
2018-06-24T03:44:17.512Z,5.43
2018-06-24T03:46:45.951Z,4.83
2018-06-24T03:49:14.466Z,5.20
2018-06-24T03:51:42.966Z,4.83
2018-06-24T03:54:11.386Z,4.70
2018-06-24T03:56:39.834Z,5.03
2018-06-24T03:59:08.302Z,4.97
2018-06-24T04:01:36.758Z,5.20
2018-06-24T04:04:05.267Z,4.57
2018-06-24T04:06:33.958Z,5.07
2018-06-24T04:09:02.475Z,5.37
2018-06-24T04:11:30.987Z,5.03
2018-06-24T04:13:59.447Z,5.10
2018-06-24T04:16:27.921Z,4.77
2018-06-24T04:18:56.430Z,4.83
2018-06-24T04:21:24.854Z,4.53
2018-06-24T04:23:53.264Z,5.47
2018-06-24T04:26:21.911Z,5.07
2018-06-24T04:28:50.477Z,4.77
2018-06-24T04:31:18.893Z,4.30
2018-06-24T04:33:47.403Z,5.00
2018-06-24T04:36:15.854Z,5.03
2018-06-24T04:38:44.405Z,4.80
2018-06-24T04:41:12.825Z,4.97
2018-06-24T04:43:41.455Z,5.63
2018-06-24T04:46:09.902Z,5.40
2018-06-24T04:48:38.378Z,5.00
2018-06-24T04:51:06.931Z,4.97
2018-06-24T04:53:35.330Z,4.23
2018-06-24T04:56:03.845Z,5.20
2018-06-24T04:58:32.437Z,5.00
2018-06-24T05:01:01.169Z,4.60
2018-06-24T05:03:29.567Z,4.83
2018-06-24T05:05:58.234Z,4.60
2018-06-24T05:08:26.634Z,5.00
2018-06-24T05:10:55.122Z,4.70
2018-06-24T05:13:23.602Z,4.53
2018-06-24T05:15:52.327Z,5.20
2018-06-24T05:18:20.771Z,4.70
2018-06-24T05:20:49.550Z,5.10
2018-06-24T05:23:18.216Z,4.90
2018-06-24T05:25:47.059Z,4.80
2018-06-24T05:28:15.503Z,4.23
2018-06-24T05:30:44.006Z,4.33
2018-06-24T05:33:12.725Z,4.77
2018-06-24T05:35:41.252Z,5.00
2018-06-24T05:38:10.061Z,5.03
2018-06-24T05:40:38.947Z,4.90
2018-06-24T05:43:07.838Z,4.73
2018-06-24T05:45:36.562Z,5.00
2018-06-24T05:48:05.858Z,4.80
2018-06-24T05:50:34.428Z,5.07
2018-06-24T05:53:03.250Z,5.67
2018-06-24T05:55:31.880Z,4.83
2018-06-24T05:58:00.581Z,5.17
2018-06-24T06:00:29.126Z,5.00
2018-06-24T06:02:57.589Z,5.07
2018-06-24T06:05:26.002Z,5.00
2018-06-24T06:07:54.522Z,5.17
2018-06-24T06:10:23.145Z,5.17
2018-06-24T06:12:51.489Z,5.30
2018-06-24T06:15:19.966Z,5.07
2018-06-24T06:17:48.491Z,4.97
2018-06-24T06:20:17.168Z,4.60
2018-06-24T06:22:45.642Z,5.70
2018-06-24T06:25:14.117Z,5.20
2018-06-24T06:27:42.574Z,5.10
2018-06-24T06:30:11.324Z,5.47
2018-06-24T06:32:39.747Z,6.50
2018-06-24T06:35:08.298Z,6.60
2018-06-24T06:37:36.960Z,5.87
2018-06-24T06:40:05.577Z,5.70
2018-06-24T06:42:34.089Z,5.83
2018-06-24T06:45:02.738Z,5.63
2018-06-24T06:47:31.135Z,5.83
2018-06-24T06:49:59.778Z,5.90
2018-06-24T06:52:28.433Z,5.80
2018-06-24T06:54:56.913Z,5.43
2018-06-24T06:57:25.395Z,5.80
2018-06-24T06:59:53.834Z,5.53
2018-06-24T07:02:22.320Z,5.37
2018-06-24T07:04:50.779Z,5.40
2018-06-24T07:07:19.347Z,5.50
2018-06-24T07:09:47.785Z,5.30
2018-06-24T07:12:16.274Z,5.70
2018-06-24T07:14:44.876Z,5.50
2018-06-24T07:17:13.526Z,5.70
2018-06-24T07:19:42.126Z,5.63
2018-06-24T07:22:10.623Z,5.50
2018-06-24T07:24:39.083Z,5.53
2018-06-24T07:27:07.639Z,5.80
2018-06-24T07:29:36.154Z,5.23
2018-06-24T07:32:04.615Z,5.77
2018-06-24T07:34:33.110Z,4.67
2018-06-24T07:37:01.656Z,5.30
2018-06-24T07:39:30.212Z,5.13
2018-06-24T07:41:58.619Z,4.83
2018-06-24T07:44:27.028Z,4.73
2018-06-24T07:46:55.506Z,4.90
2018-06-24T07:49:24.032Z,4.70
2018-06-24T07:51:52.566Z,4.40
2018-06-24T07:54:21.050Z,4.17
2018-06-24T07:56:49.620Z,3.73
2018-06-24T07:59:18.190Z,3.80
2018-06-24T08:01:46.731Z,3.90
2018-06-24T08:04:15.212Z,3.80
2018-06-24T08:06:43.659Z,3.92
2018-06-24T08:09:12.919Z,4.10
2018-06-24T08:11:42.196Z,4.28
2018-06-24T08:14:41.622Z,4.47
2018-06-24T08:17:10.214Z,4.47
2018-06-24T08:19:38.754Z,4.13
2018-06-24T08:22:07.190Z,4.12
2018-06-24T08:24:35.763Z,4.07
2018-06-24T08:27:04.361Z,3.93
2018-06-24T08:29:32.884Z,3.75
2018-06-24T08:32:05.495Z,3.75
2018-06-24T08:34:33.963Z,3.50
2018-06-24T08:37:02.382Z,3.60
2018-06-24T08:39:30.877Z,3.52
2018-06-24T08:41:59.349Z,3.70
2018-06-24T08:44:27.835Z,3.37
2018-06-24T08:46:56.332Z,3.40
2018-06-24T08:49:24.945Z,3.62
2018-06-24T08:51:53.402Z,3.37
2018-06-24T08:54:21.858Z,3.35
2018-06-24T08:56:50.588Z,3.10
2018-06-24T08:59:19.084Z,3.00
2018-06-24T09:01:47.540Z,3.02
2018-06-24T09:04:16.047Z,3.40
2018-06-24T09:06:45.432Z,3.02
2018-06-24T09:09:13.886Z,2.87
2018-06-24T09:11:42.347Z,3.02
2018-06-24T09:14:10.892Z,3.15
2018-06-24T09:16:39.430Z,3.08
2018-06-24T09:19:07.998Z,2.90
2018-06-24T09:21:36.491Z,2.87
2018-06-24T09:24:04.971Z,2.83
2018-06-24T09:26:33.470Z,3.25
2018-06-24T09:29:01.907Z,3.20
2018-06-24T09:31:30.410Z,2.90
2018-06-24T09:33:59.178Z,2.65
2018-06-24T09:36:27.783Z,2.52
2018-06-24T09:38:56.357Z,3.42
2018-06-24T09:41:24.911Z,2.72
2018-06-24T09:43:54.350Z,2.55
2018-06-24T09:46:23.069Z,2.60
2018-06-24T09:48:51.606Z,2.60
2018-06-24T09:51:20.165Z,2.30
2018-06-24T09:53:48.875Z,3.08
2018-06-24T09:56:17.362Z,2.92
2018-06-24T09:58:45.855Z,2.50
2018-06-24T10:01:14.352Z,2.42
2018-06-24T10:03:42.866Z,2.30
2018-06-24T10:06:11.270Z,2.55
2018-06-24T10:08:39.980Z,2.02
2018-06-24T10:11:08.597Z,2.33
2018-06-24T10:13:37.101Z,2.20
2018-06-24T10:16:05.535Z,3.05
2018-06-24T10:18:34.091Z,2.60
2018-06-24T10:21:02.759Z,2.60
2018-06-24T10:23:31.186Z,2.20
2018-06-24T10:25:59.681Z,2.65
2018-06-24T10:28:28.205Z,2.33
2018-06-24T10:30:56.681Z,2.40
2018-06-24T10:33:25.176Z,2.80
2018-06-24T10:35:54.620Z,2.50
2018-06-24T10:38:23.395Z,2.40
2018-06-24T10:40:52.052Z,2.40
2018-06-24T10:43:20.519Z,2.20
2018-06-24T10:45:52.388Z,2.30
2018-06-24T10:48:20.839Z,2.40
2018-06-24T10:50:49.434Z,2.62
2018-06-24T10:53:18.019Z,2.37
2018-06-24T10:55:46.510Z,2.12
2018-06-24T10:58:14.991Z,2.40
2018-06-24T11:00:43.638Z,2.55
2018-06-24T11:03:12.101Z,2.35
2018-06-24T11:05:40.650Z,2.45
2018-06-24T11:08:09.098Z,2.30
2018-06-24T11:10:37.579Z,2.10
2018-06-24T11:13:06.301Z,3.02
2018-06-24T11:15:34.807Z,2.65
2018-06-24T11:18:03.594Z,3.05
2018-06-24T11:20:32.137Z,2.30
2018-06-24T11:23:00.599Z,2.60
2018-06-24T11:25:29.070Z,2.25
2018-06-24T11:27:57.683Z,2.30
2018-06-24T11:30:26.219Z,2.42
2018-06-24T11:32:54.712Z,2.90
2018-06-24T11:35:23.149Z,2.70
2018-06-24T11:37:51.619Z,2.70
2018-06-24T11:40:20.135Z,2.00
2018-06-24T11:42:48.720Z,2.30
2018-06-24T11:45:17.275Z,2.67
2018-06-24T11:47:45.834Z,2.10
2018-06-24T11:50:14.286Z,2.10
2018-06-24T11:52:42.756Z,2.50
2018-06-24T11:55:11.234Z,2.30
2018-06-24T11:57:39.687Z,2.25
2018-06-24T12:00:08.233Z,2.22
2018-06-24T12:02:36.690Z,2.42
2018-06-24T12:05:05.221Z,2.77
2018-06-24T12:07:33.795Z,2.05
2018-06-24T12:10:02.248Z,2.40
2018-06-24T12:12:30.665Z,2.20
2018-06-24T12:14:59.211Z,3.37
2018-06-24T12:17:27.900Z,2.40
2018-06-24T12:19:56.238Z,2.40
2018-06-24T12:22:24.815Z,2.50
2018-06-24T12:24:53.327Z,2.47
2018-06-24T12:27:21.752Z,2.90
2018-06-24T12:29:50.374Z,2.27
2018-06-24T12:32:18.919Z,2.45
2018-06-24T12:34:47.476Z,2.45
2018-06-24T12:37:15.918Z,2.37
2018-06-24T12:39:44.409Z,2.30
2018-06-24T12:42:12.906Z,3.17
2018-06-24T12:44:41.358Z,3.27
2018-06-24T12:47:09.815Z,2.75
2018-06-24T12:49:38.319Z,2.80
2018-06-24T12:52:06.770Z,2.30
2018-06-24T12:54:35.402Z,3.00
2018-06-24T12:57:03.841Z,2.50
2018-06-24T12:59:32.607Z,2.27
2018-06-24T13:02:01.365Z,2.40
2018-06-24T13:04:29.785Z,2.85
2018-06-24T13:06:58.384Z,2.37
2018-06-24T13:09:26.822Z,2.12
2018-06-24T13:11:55.378Z,2.27
2018-06-24T13:14:23.785Z,2.40
2018-06-24T13:16:52.693Z,1.98
2018-06-24T13:19:21.244Z,2.12
2018-06-24T13:21:49.782Z,1.80
2018-06-24T13:24:18.273Z,2.25
2018-06-24T13:26:46.961Z,1.70
2018-06-24T13:29:15.506Z,2.02
2018-06-24T13:31:44.113Z,2.10
2018-06-24T13:34:12.684Z,2.02
2018-06-24T13:36:41.207Z,1.72
2018-06-24T13:39:10.750Z,1.60
2018-06-24T13:41:39.448Z,2.10
2018-06-24T13:44:08.522Z,2.33
2018-06-24T13:46:37.899Z,1.75
2018-06-24T13:49:06.391Z,1.92
2018-06-24T13:51:34.873Z,2.10
2018-06-24T13:54:03.495Z,2.83
2018-06-24T13:56:32.036Z,2.50
2018-06-24T13:59:00.502Z,2.42
2018-06-24T14:01:29.194Z,2.05
2018-06-24T14:03:57.896Z,2.20
2018-06-24T14:06:26.345Z,1.90
2018-06-24T14:08:54.831Z,2.40
2018-06-24T14:11:23.367Z,2.58
2018-06-24T14:13:51.750Z,2.30
2018-06-24T14:16:20.338Z,1.70
2018-06-24T14:18:48.838Z,1.50
2018-06-24T14:21:17.483Z,2.10
2018-06-24T14:23:46.021Z,2.35
2018-06-24T14:26:14.694Z,2.17
2018-06-24T14:28:43.166Z,2.08
2018-06-24T14:31:11.659Z,2.12
2018-06-24T14:33:40.156Z,2.25
2018-06-24T14:36:08.683Z,1.80
2018-06-24T14:38:37.246Z,1.80
2018-06-24T14:41:05.739Z,2.20
2018-06-24T14:43:34.181Z,2.47
2018-06-24T14:46:02.635Z,2.70
2018-06-24T14:48:31.125Z,2.05
2018-06-24T14:50:59.632Z,2.35
2018-06-24T14:53:28.213Z,2.52
2018-06-24T14:55:56.708Z,2.00
2018-06-24T14:58:25.322Z,1.70
2018-06-24T15:00:53.776Z,1.60
2018-06-24T15:03:22.310Z,2.30
2018-06-24T15:05:50.863Z,2.00
2018-06-24T15:08:19.406Z,1.90
2018-06-24T15:10:47.822Z,1.90
2018-06-24T15:13:16.318Z,1.95
2018-06-24T15:15:44.897Z,1.77
2018-06-24T15:18:13.356Z,1.75
2018-06-24T15:20:42.107Z,1.85
2018-06-24T15:23:10.628Z,2.25
2018-06-24T15:25:39.198Z,1.77
2018-06-24T15:28:07.661Z,1.72
2018-06-24T15:30:36.198Z,2.20
2018-06-24T15:33:04.709Z,2.10
2018-06-24T15:35:33.196Z,1.90
2018-06-24T15:38:01.992Z,1.95
2018-06-24T15:40:30.588Z,1.70
2018-06-24T15:42:59.131Z,2.75
2018-06-24T15:45:27.808Z,2.33
2018-06-24T15:47:56.306Z,2.10
2018-06-24T15:50:24.785Z,2.20
2018-06-24T15:52:53.227Z,2.50
2018-06-24T15:55:21.760Z,2.30
2018-06-24T15:57:50.284Z,2.40
2018-06-24T16:00:18.848Z,1.77
2018-06-24T16:02:47.514Z,2.35
2018-06-24T16:05:16.127Z,2.27
2018-06-24T16:07:44.686Z,1.60
2018-06-24T16:10:13.286Z,1.80
2018-06-24T16:12:41.775Z,2.20
2018-06-24T16:15:10.755Z,1.90
2018-06-24T16:17:39.302Z,2.05
2018-06-24T16:20:07.798Z,1.80
2018-06-24T16:22:37.784Z,1.92
2018-06-24T16:25:06.542Z,2.12
2018-06-24T16:27:35.039Z,2.42
2018-06-24T16:30:03.679Z,2.58
2018-06-24T16:32:32.134Z,2.10
2018-06-24T16:35:00.679Z,2.25
2018-06-24T16:37:29.223Z,1.90
2018-06-24T16:39:57.677Z,2.40
2018-06-24T16:42:26.183Z,2.35
2018-06-24T16:44:54.770Z,1.87
2018-06-24T16:47:23.210Z,2.08
2018-06-24T16:49:51.676Z,2.20
2018-06-24T16:52:20.190Z,2.25
2018-06-24T16:54:48.698Z,1.77
2018-06-24T16:57:17.383Z,1.90
2018-06-24T16:59:45.876Z,1.98
2018-06-24T17:02:14.469Z,2.33
2018-06-24T17:04:42.975Z,2.25
2018-06-24T17:07:11.516Z,2.45
2018-06-24T17:09:39.967Z,2.08
2018-06-24T17:12:08.439Z,2.72
2018-06-24T17:14:37.028Z,2.40
2018-06-24T17:17:05.660Z,2.30
2018-06-24T17:19:34.218Z,2.27
2018-06-24T17:22:02.722Z,2.72
2018-06-24T17:24:31.106Z,1.85
2018-06-24T17:26:59.668Z,2.33
2018-06-24T17:29:28.282Z,2.15
2018-06-24T17:31:56.871Z,2.40
2018-06-24T17:34:25.529Z,2.22
2018-06-24T17:36:53.999Z,2.40
2018-06-24T17:39:22.527Z,2.35
2018-06-24T17:41:51.082Z,2.12
2018-06-24T17:44:19.634Z,2.25
2018-06-24T17:46:48.158Z,2.40
2018-06-24T17:49:16.759Z,2.20
2018-06-24T17:51:45.253Z,2.08
2018-06-24T17:54:13.750Z,2.50
2018-06-24T17:56:42.279Z,2.08
2018-06-24T17:59:10.751Z,2.45
2018-06-24T18:01:39.170Z,2.22
2018-06-24T18:04:08.186Z,2.52
2018-06-24T18:06:36.589Z,2.27
2018-06-24T18:09:08.227Z,2.40
2018-06-24T18:11:36.988Z,2.80
2018-06-24T18:14:05.562Z,2.42
2018-06-24T18:16:34.470Z,2.25
2018-06-24T18:19:03.179Z,2.20
2018-06-24T18:21:31.752Z,2.35
2018-06-24T18:24:00.315Z,2.40
2018-06-24T18:26:28.822Z,2.08
2018-06-24T18:28:57.508Z,2.67
2018-06-24T18:31:25.955Z,2.58
2018-06-24T18:33:54.720Z,2.30
2018-06-24T18:36:23.121Z,2.72
2018-06-24T18:38:51.595Z,2.30
2018-06-24T18:41:20.267Z,2.20
2018-06-24T18:43:48.799Z,2.22
2018-06-24T18:46:17.329Z,2.40
2018-06-24T18:48:45.923Z,2.33
2018-06-24T18:51:14.327Z,2.30
2018-06-24T18:53:42.831Z,2.03
2018-06-24T18:56:11.312Z,2.20
2018-06-24T18:58:39.738Z,2.58
2018-06-24T19:01:08.286Z,2.17
2018-06-24T19:03:36.791Z,2.40
2018-06-24T19:06:05.634Z,2.30
2018-06-24T19:08:34.163Z,2.37
2018-06-24T19:11:02.614Z,2.40
2018-06-24T19:13:31.107Z,2.40
2018-06-24T19:15:59.620Z,2.50
2018-06-24T19:18:28.173Z,1.93
2018-06-24T19:20:56.683Z,2.27
2018-06-24T19:23:29.072Z,2.77
2018-06-24T19:25:57.710Z,2.63
2018-06-24T19:28:26.191Z,2.43
2018-06-24T19:30:54.710Z,2.30
2018-06-24T19:33:23.293Z,3.17
2018-06-24T19:35:51.731Z,3.03
2018-06-24T19:38:20.241Z,2.70
2018-06-24T19:40:48.851Z,2.77
2018-06-24T19:43:17.532Z,2.50
2018-06-24T19:45:45.946Z,2.57
2018-06-24T19:48:14.455Z,2.73
2018-06-24T19:50:42.979Z,2.30
2018-06-24T19:53:11.415Z,2.50
2018-06-24T19:55:40.160Z,2.40
2018-06-24T19:58:08.713Z,2.70
2018-06-24T20:00:37.324Z,2.53
2018-06-24T20:03:05.841Z,2.63
2018-06-24T20:05:35.360Z,3.00
2018-06-24T20:08:03.906Z,2.70
2018-06-24T20:10:32.416Z,3.07
2018-06-24T20:13:00.922Z,3.10
2018-06-24T20:15:29.424Z,2.60
2018-06-24T20:17:57.960Z,4.43
2018-06-24T20:20:26.486Z,2.67
2018-06-24T20:22:55.191Z,3.27
2018-06-24T20:25:23.853Z,2.60
2018-06-24T20:27:52.332Z,2.30
2018-06-24T20:30:20.999Z,2.80
2018-06-24T20:32:49.450Z,3.00
2018-06-24T20:35:18.031Z,2.53
2018-06-24T20:37:46.543Z,3.00
2018-06-24T20:40:15.061Z,2.30
2018-06-24T20:42:43.470Z,2.37
2018-06-24T20:45:12.050Z,2.97
2018-06-24T20:47:40.572Z,2.70
2018-06-24T20:50:09.056Z,2.50
2018-06-24T20:52:37.560Z,2.50
2018-06-24T20:55:06.097Z,2.50
2018-06-24T20:57:34.880Z,2.60
2018-06-24T21:00:03.430Z,3.23
2018-06-24T21:02:31.966Z,2.53
2018-06-24T21:05:00.435Z,2.47
2018-06-24T21:07:28.936Z,2.93
2018-06-24T21:09:57.382Z,2.40
2018-06-24T21:12:25.865Z,2.73
2018-06-24T21:14:54.495Z,2.70
2018-06-24T21:17:22.966Z,3.13
2018-06-24T21:19:51.434Z,2.90
2018-06-24T21:22:20.010Z,3.13
2018-06-24T21:24:48.648Z,2.40
2018-06-24T21:27:17.140Z,3.03
2018-06-24T21:29:45.625Z,2.73
2018-06-24T21:32:14.057Z,2.80
2018-06-24T21:34:42.543Z,2.73
2018-06-24T21:37:11.068Z,3.43
2018-06-24T21:39:39.554Z,2.67
2018-06-24T21:42:08.327Z,3.20
2018-06-24T21:44:36.867Z,2.50
2018-06-24T21:47:05.370Z,3.30
2018-06-24T21:49:33.821Z,2.63
2018-06-24T21:52:02.328Z,2.80
2018-06-24T21:54:30.767Z,3.07
2018-06-24T21:56:59.331Z,3.40
2018-06-24T21:59:27.734Z,2.60
2018-06-24T22:01:56.200Z,3.00
2018-06-24T22:04:28.366Z,2.80
2018-06-24T22:06:56.834Z,3.07
2018-06-24T22:09:25.305Z,2.80
2018-06-24T22:11:53.702Z,2.93
2018-06-24T22:14:22.204Z,2.77
2018-06-24T22:16:50.728Z,3.63
2018-06-24T22:19:20.422Z,2.87
2018-06-24T22:21:48.876Z,2.93
2018-06-24T22:24:17.664Z,2.87
2018-06-24T22:26:46.161Z,2.93
2018-06-24T22:29:14.611Z,3.10
2018-06-24T22:31:43.102Z,3.17
2018-06-24T22:34:11.615Z,2.97
2018-06-24T22:36:40.214Z,2.83
2018-06-24T22:39:10.958Z,2.67
2018-06-24T22:41:39.443Z,3.20
2018-06-24T22:44:08.003Z,3.20
2018-06-24T22:46:36.742Z,3.00
2018-06-24T22:49:09.851Z,2.90
2018-06-24T22:51:38.303Z,2.67
2018-06-24T22:54:06.843Z,3.07
2018-06-24T22:56:35.267Z,3.10
2018-06-24T22:59:14.890Z,3.10
2018-06-24T23:01:43.392Z,2.97
2018-06-24T23:04:11.910Z,3.00
2018-06-24T23:06:40.354Z,3.43
2018-06-24T23:09:09.417Z,3.00
2018-06-24T23:11:37.982Z,3.27
2018-06-24T23:14:06.478Z,3.33
2018-06-24T23:16:35.079Z,2.80
2018-06-24T23:19:03.821Z,3.33
2018-06-24T23:21:32.237Z,3.13
2018-06-24T23:24:00.691Z,2.87
2018-06-24T23:26:29.100Z,3.40
2018-06-24T23:28:57.894Z,3.10
2018-06-24T23:31:26.426Z,3.20
2018-06-24T23:33:55.939Z,3.40
2018-06-24T23:36:24.411Z,3.00
2018-06-24T23:38:52.887Z,3.20
2018-06-24T23:41:21.320Z,3.30
2018-06-24T23:43:49.838Z,3.20
2018-06-24T23:46:18.315Z,3.00
2018-06-24T23:48:46.814Z,3.20
2018-06-24T23:51:15.410Z,3.10
2018-06-24T23:53:43.850Z,2.87
2018-06-24T23:56:12.350Z,3.00
2018-06-24T23:58:40.811Z,3.27
